createdAt,value
2019-05-20T00:01:24.969Z,12.60
2019-05-20T00:04:12.557Z,12.60
2019-05-20T00:06:59.973Z,12.40
2019-05-20T00:09:47.331Z,12.40
2019-05-20T00:12:35.105Z,12.50
2019-05-20T00:15:22.581Z,12.50
2019-05-20T00:18:10.523Z,12.50
2019-05-20T00:20:58.039Z,12.40
2019-05-20T00:23:45.445Z,12.50
2019-05-20T00:26:33.110Z,12.30
2019-05-20T00:29:20.769Z,12.20
2019-05-20T00:32:14.041Z,12.10
2019-05-20T00:35:01.097Z,12.20
2019-05-20T00:37:47.982Z,12.20
2019-05-20T00:40:35.458Z,12.50
2019-05-20T00:43:22.903Z,12.40
2019-05-20T00:46:10.634Z,12.40
2019-05-20T00:48:58.211Z,12.30
2019-05-20T00:51:46.097Z,12.20
2019-05-20T00:54:33.294Z,12.10
2019-05-20T00:57:20.580Z,12.20
2019-05-20T01:00:08.778Z,12.20
2019-05-20T01:02:57.403Z,12.20
2019-05-20T01:05:44.944Z,12.30
2019-05-20T01:08:32.116Z,12.30
2019-05-20T01:11:19.503Z,12.20
2019-05-20T01:14:06.807Z,12.10
2019-05-20T01:16:54.199Z,12.20
2019-05-20T01:19:41.427Z,12.20
2019-05-20T01:22:28.894Z,12.20
2019-05-20T01:25:16.172Z,12.30
2019-05-20T01:28:03.856Z,12.30
2019-05-20T01:30:51.174Z,12.10
2019-05-20T01:33:38.173Z,12.20
2019-05-20T01:36:25.705Z,12.10
2019-05-20T01:39:13.141Z,12.20
2019-05-20T01:42:00.746Z,12.30
2019-05-20T01:44:47.790Z,12.30
2019-05-20T01:47:35.339Z,12.30
2019-05-20T01:50:22.834Z,12.20
2019-05-20T01:53:10.189Z,12.20
2019-05-20T01:55:58.356Z,12.30
2019-05-20T01:58:45.710Z,12.30
2019-05-20T02:01:33.438Z,12.40
2019-05-20T02:04:20.668Z,12.40
2019-05-20T02:07:08.206Z,12.40
2019-05-20T02:09:55.381Z,12.30
2019-05-20T02:12:42.617Z,12.20
2019-05-20T02:15:43.581Z,12.10
2019-05-20T02:18:30.549Z,12.20
2019-05-20T02:21:17.965Z,12.20
2019-05-20T02:24:05.281Z,12.20
2019-05-20T02:26:52.701Z,12.10
2019-05-20T02:29:40.437Z,12.10
2019-05-20T02:32:27.955Z,12.20
2019-05-20T02:35:15.553Z,12.30
2019-05-20T02:38:03.289Z,12.20
2019-05-20T02:40:50.374Z,12.20
2019-05-20T02:43:37.505Z,12.20
2019-05-20T02:46:25.202Z,12.20
2019-05-20T02:49:12.641Z,12.20
2019-05-20T02:51:59.823Z,12.20
2019-05-20T02:54:47.230Z,12.20
2019-05-20T02:57:34.450Z,12.20
2019-05-20T03:00:22.260Z,12.20
2019-05-20T03:03:09.513Z,12.10
2019-05-20T03:05:56.939Z,12.10
2019-05-20T03:08:44.256Z,12.10
2019-05-20T03:11:31.231Z,12.00
2019-05-20T03:14:18.636Z,12.10
2019-05-20T03:17:05.907Z,12.10
2019-05-20T03:19:53.626Z,12.20
2019-05-20T03:22:41.470Z,12.20
2019-05-20T03:25:28.851Z,12.10
2019-05-20T03:28:16.782Z,12.10
2019-05-20T03:31:04.247Z,12.10
2019-05-20T03:33:51.527Z,12.20
2019-05-20T03:36:38.994Z,12.20
2019-05-20T03:39:26.552Z,12.10
2019-05-20T03:42:13.848Z,12.20
2019-05-20T03:45:01.246Z,12.10
2019-05-20T03:47:48.965Z,12.20
2019-05-20T03:50:36.240Z,12.10
2019-05-20T03:53:23.883Z,12.20
2019-05-20T03:56:11.320Z,12.00
2019-05-20T03:58:58.701Z,12.10
2019-05-20T04:01:45.701Z,12.20
2019-05-20T04:04:33.178Z,12.20
2019-05-20T04:07:20.161Z,12.20
2019-05-20T04:10:07.538Z,12.20
2019-05-20T04:12:54.674Z,12.20
2019-05-20T04:15:42.162Z,12.10
2019-05-20T04:18:29.970Z,12.20
2019-05-20T04:21:17.439Z,12.10
2019-05-20T04:24:04.887Z,12.10
2019-05-20T04:26:55.223Z,12.20
2019-05-20T04:29:42.991Z,12.20
2019-05-20T04:32:29.932Z,12.20
2019-05-20T04:35:22.429Z,12.10
2019-05-20T04:38:06.457Z,12.20
2019-05-20T04:40:54.129Z,12.20
2019-05-20T04:43:41.709Z,12.10
2019-05-20T04:46:28.940Z,12.00
2019-05-20T04:49:16.594Z,12.10
2019-05-20T04:52:04.195Z,12.10
2019-05-20T04:54:51.453Z,12.20
2019-05-20T04:57:38.772Z,12.10
2019-05-20T05:00:49.704Z,12.10
2019-05-20T05:03:36.845Z,12.20
2019-05-20T05:06:24.545Z,12.20
2019-05-20T05:09:15.323Z,12.30
2019-05-20T05:12:00.832Z,12.40
2019-05-20T05:14:48.075Z,12.30
2019-05-20T05:17:35.270Z,12.40
2019-05-20T05:20:22.588Z,12.50
2019-05-20T05:23:10.023Z,12.20
2019-05-20T05:25:57.651Z,12.10
2019-05-20T05:28:45.200Z,12.10
2019-05-20T05:31:33.046Z,12.20
2019-05-20T05:34:20.758Z,12.20
2019-05-20T05:37:07.888Z,12.40
2019-05-20T05:39:55.464Z,12.40
2019-05-20T05:42:42.946Z,12.50
2019-05-20T05:45:32.308Z,12.60
2019-05-20T05:48:19.323Z,12.50
2019-05-20T05:51:06.840Z,12.60
2019-05-20T05:53:54.245Z,12.70
2019-05-20T05:56:42.053Z,12.70
2019-05-20T05:59:29.268Z,12.50
2019-05-20T06:02:16.856Z,12.40
2019-05-20T06:05:04.765Z,12.40
2019-05-20T06:07:51.768Z,12.60
2019-05-20T06:10:39.481Z,12.80
2019-05-20T06:13:26.512Z,12.80
2019-05-20T06:16:14.081Z,12.90
2019-05-20T06:19:01.535Z,12.70
2019-05-20T06:21:48.463Z,12.60
2019-05-20T06:24:35.384Z,12.60
2019-05-20T06:27:22.925Z,12.60
2019-05-20T06:30:11.861Z,12.50
2019-05-20T06:32:59.292Z,12.60
2019-05-20T06:35:46.792Z,12.50
2019-05-20T06:38:36.090Z,12.40
2019-05-20T06:41:23.295Z,12.50
2019-05-20T06:44:10.476Z,12.30
2019-05-20T06:46:58.160Z,12.30
2019-05-20T06:49:45.450Z,12.30
2019-05-20T06:52:36.042Z,12.30
2019-05-20T06:55:21.489Z,12.30
2019-05-20T06:58:08.935Z,12.30
2019-05-20T07:00:56.083Z,12.40
2019-05-20T07:03:43.640Z,12.20
2019-05-20T07:06:44.711Z,12.40
2019-05-20T07:09:19.801Z,12.60
2019-05-20T07:12:07.134Z,12.50
2019-05-20T07:14:53.978Z,12.50
2019-05-20T07:17:41.506Z,12.70
2019-05-20T07:20:28.766Z,12.80
2019-05-20T07:23:16.572Z,13.00
2019-05-20T07:26:03.909Z,12.90
2019-05-20T07:28:51.549Z,12.80
2019-05-20T07:31:38.859Z,12.90
2019-05-20T07:34:26.626Z,12.90
2019-05-20T07:37:14.280Z,12.70
2019-05-20T07:40:01.873Z,12.80
2019-05-20T07:42:49.614Z,12.90
2019-05-20T07:45:37.630Z,12.90
2019-05-20T07:48:25.135Z,12.90
2019-05-20T07:51:13.446Z,13.00
2019-05-20T07:54:02.012Z,13.10
2019-05-20T07:56:51.781Z,13.30
2019-05-20T07:59:41.585Z,13.40
2019-05-20T08:02:29.207Z,13.60
2019-05-20T08:05:17.153Z,13.60
2019-05-20T08:08:04.810Z,13.60
2019-05-20T08:10:52.199Z,13.60
2019-05-20T08:13:39.917Z,13.60
2019-05-20T08:16:27.082Z,13.60
2019-05-20T08:19:14.403Z,13.60
2019-05-20T08:22:01.705Z,13.60
2019-05-20T08:24:49.547Z,13.60
2019-05-20T08:27:36.985Z,13.50
2019-05-20T08:30:30.767Z,13.50
2019-05-20T08:33:18.248Z,13.30
2019-05-20T08:36:05.463Z,13.20
2019-05-20T08:38:53.204Z,13.30
2019-05-20T08:41:40.409Z,13.30
2019-05-20T08:44:27.629Z,13.30
2019-05-20T08:47:15.353Z,13.20
2019-05-20T08:50:06.505Z,13.20
2019-05-20T08:52:52.137Z,13.30
2019-05-20T08:55:41.396Z,13.30
2019-05-20T08:58:29.007Z,13.30
2019-05-20T09:01:16.407Z,13.30
2019-05-20T09:04:04.195Z,13.20
2019-05-20T09:06:51.666Z,13.40
2019-05-20T09:09:39.396Z,13.20
2019-05-20T09:12:26.924Z,13.40
2019-05-20T09:15:14.525Z,13.30
2019-05-20T09:18:01.703Z,13.40
2019-05-20T09:20:49.263Z,13.70
2019-05-20T09:23:36.440Z,13.70
2019-05-20T09:26:23.982Z,13.70
2019-05-20T09:29:11.737Z,13.80
2019-05-20T09:31:59.327Z,14.00
2019-05-20T09:34:46.766Z,14.10
2019-05-20T09:37:34.669Z,14.20
2019-05-20T09:40:36.831Z,14.10
2019-05-20T09:43:24.217Z,14.20
2019-05-20T09:46:11.925Z,14.00
2019-05-20T09:48:59.812Z,14.10
2019-05-20T09:51:47.637Z,14.10
2019-05-20T09:54:35.139Z,14.40
2019-05-20T09:57:24.170Z,14.40
2019-05-20T10:00:12.381Z,14.70
2019-05-20T10:02:59.928Z,14.60
2019-05-20T10:05:47.303Z,14.50
2019-05-20T10:08:39.618Z,14.20
2019-05-20T10:11:23.799Z,14.10
2019-05-20T10:14:11.623Z,14.20
2019-05-20T10:16:59.450Z,14.10
2019-05-20T10:19:46.634Z,13.90
2019-05-20T10:22:34.579Z,13.80
2019-05-20T10:25:21.948Z,13.80
2019-05-20T10:28:09.677Z,13.70
2019-05-20T10:30:57.401Z,14.00
2019-05-20T10:33:45.141Z,14.20
2019-05-20T10:36:32.486Z,14.20
2019-05-20T10:39:20.053Z,14.20
2019-05-20T10:42:07.419Z,14.20
2019-05-20T10:44:54.721Z,14.30
2019-05-20T10:47:41.989Z,14.10
2019-05-20T10:50:29.485Z,14.10
2019-05-20T10:53:17.164Z,14.20
2019-05-20T10:56:04.395Z,14.10
2019-05-20T10:58:52.160Z,14.30
2019-05-20T11:01:39.558Z,14.00
2019-05-20T11:04:26.713Z,14.30
2019-05-20T11:07:14.079Z,14.50
2019-05-20T11:10:01.756Z,14.40
2019-05-20T11:12:49.421Z,14.30
2019-05-20T11:15:37.465Z,14.10
2019-05-20T11:18:25.127Z,14.40
2019-05-20T11:21:12.668Z,14.20
2019-05-20T11:24:00.075Z,14.50
2019-05-20T11:26:47.539Z,14.30
2019-05-20T11:29:34.637Z,14.40
2019-05-20T11:32:22.142Z,14.40
2019-05-20T11:35:09.996Z,14.30
2019-05-20T11:37:56.897Z,14.10
2019-05-20T11:40:44.409Z,14.00
2019-05-20T11:43:32.041Z,14.10
2019-05-20T11:46:19.377Z,14.00
2019-05-20T11:49:06.902Z,13.90
2019-05-20T11:51:54.221Z,14.10
2019-05-20T11:54:41.687Z,14.20
2019-05-20T11:57:29.474Z,14.50
2019-05-20T12:00:17.425Z,14.30
2019-05-20T12:03:05.021Z,14.10
2019-05-20T12:05:52.522Z,14.30
2019-05-20T12:08:39.818Z,14.30
2019-05-20T12:11:27.427Z,14.10
2019-05-20T12:14:14.756Z,13.90
2019-05-20T12:17:02.133Z,14.10
2019-05-20T12:19:49.389Z,14.30
2019-05-20T12:22:37.079Z,14.30
2019-05-20T12:25:24.626Z,14.50
2019-05-20T12:28:12.124Z,14.60
2019-05-20T12:30:59.859Z,14.70
2019-05-20T12:33:47.248Z,14.90
2019-05-20T12:36:34.705Z,15.10
2019-05-20T12:39:21.943Z,15.00
2019-05-20T12:42:10.416Z,14.60
2019-05-20T12:44:57.797Z,14.70
2019-05-20T12:47:45.634Z,14.70
2019-05-20T12:50:32.956Z,14.40
2019-05-20T12:53:21.060Z,14.30
2019-05-20T12:56:08.492Z,14.30
2019-05-20T12:58:56.356Z,14.40
2019-05-20T13:01:43.734Z,14.50
2019-05-20T13:04:31.319Z,14.60
2019-05-20T13:07:19.012Z,14.90
2019-05-20T13:10:26.560Z,15.00
2019-05-20T13:12:59.438Z,15.00
2019-05-20T13:15:47.285Z,15.00
2019-05-20T13:18:34.770Z,14.90
2019-05-20T13:21:22.168Z,14.60
2019-05-20T13:24:09.251Z,14.70
2019-05-20T13:26:56.530Z,14.50
2019-05-20T13:29:43.866Z,14.40
2019-05-20T13:32:31.069Z,14.30
2019-05-20T13:35:18.448Z,14.30
2019-05-20T13:38:06.176Z,14.30
2019-05-20T13:40:53.409Z,14.40
2019-05-20T13:43:40.919Z,14.40
2019-05-20T13:46:28.544Z,14.50
2019-05-20T13:49:16.068Z,14.40
2019-05-20T13:52:03.644Z,14.30
2019-05-20T13:54:51.054Z,14.50
2019-05-20T13:57:38.314Z,14.70
2019-05-20T14:00:25.895Z,14.70
2019-05-20T14:03:13.174Z,14.60
2019-05-20T14:06:00.471Z,14.60
2019-05-20T14:08:47.572Z,14.50
2019-05-20T14:11:35.070Z,14.50
2019-05-20T14:14:22.829Z,14.60
2019-05-20T14:17:10.381Z,14.50
2019-05-20T14:19:57.564Z,14.80
2019-05-20T14:22:44.991Z,14.90
2019-05-20T14:25:32.170Z,14.80
2019-05-20T14:28:19.480Z,14.70
2019-05-20T14:31:07.350Z,14.70
2019-05-20T14:33:54.725Z,14.90
2019-05-20T14:36:42.270Z,15.10
2019-05-20T14:39:29.958Z,15.00
2019-05-20T14:42:17.413Z,15.20
2019-05-20T14:45:07.008Z,15.30
2019-05-20T14:47:54.282Z,15.00
2019-05-20T14:50:42.573Z,15.30
2019-05-20T14:53:30.343Z,15.20
2019-05-20T14:56:17.863Z,15.20
2019-05-20T14:59:05.315Z,15.10
2019-05-20T15:01:52.488Z,15.30
2019-05-20T15:04:39.938Z,15.10
2019-05-20T15:07:30.640Z,15.00
2019-05-20T15:10:17.200Z,14.90
2019-05-20T15:13:06.057Z,14.90
2019-05-20T15:15:53.085Z,14.80
2019-05-20T15:18:40.558Z,14.80
2019-05-20T15:21:29.521Z,14.90
2019-05-20T15:24:16.983Z,14.90
2019-05-20T15:27:04.549Z,14.60
2019-05-20T15:29:52.054Z,14.60
2019-05-20T15:32:39.525Z,14.70
2019-05-20T15:35:26.725Z,14.40
2019-05-20T15:38:14.193Z,14.50
2019-05-20T15:41:01.885Z,14.40
2019-05-20T15:43:49.073Z,14.60
2019-05-20T15:46:36.320Z,14.70
2019-05-20T15:49:23.690Z,14.40
2019-05-20T15:52:11.130Z,14.30
2019-05-20T15:54:58.492Z,14.40
2019-05-20T15:57:46.324Z,14.40
2019-05-20T16:00:34.102Z,14.20
2019-05-20T16:03:21.875Z,14.40
2019-05-20T16:06:09.248Z,14.60
2019-05-20T16:08:56.491Z,14.50
2019-05-20T16:11:43.830Z,14.40
2019-05-20T16:14:31.351Z,14.50
2019-05-20T16:17:19.144Z,14.40
2019-05-20T16:20:07.534Z,14.30
2019-05-20T16:22:55.527Z,14.30
2019-05-20T16:25:43.071Z,14.30
2019-05-20T16:28:30.434Z,14.30
2019-05-20T16:31:18.025Z,14.40
2019-05-20T16:34:05.331Z,14.60
2019-05-20T16:36:52.508Z,14.70
2019-05-20T16:39:39.937Z,14.60
2019-05-20T16:42:27.329Z,14.60
2019-05-20T16:45:14.990Z,14.40
2019-05-20T16:48:02.688Z,14.00
2019-05-20T16:50:50.187Z,14.30
2019-05-20T16:53:37.260Z,14.40
2019-05-20T16:56:24.354Z,14.50
2019-05-20T16:59:11.981Z,14.40
2019-05-20T17:01:58.928Z,14.30
2019-05-20T17:04:46.425Z,14.00
2019-05-20T17:07:33.916Z,14.10
2019-05-20T17:10:21.671Z,14.10
2019-05-20T17:13:09.190Z,14.20
2019-05-20T17:15:56.476Z,14.20
2019-05-20T17:18:43.611Z,14.10
2019-05-20T17:21:31.169Z,14.00
2019-05-20T17:24:18.844Z,13.90
2019-05-20T17:27:05.902Z,13.80
2019-05-20T17:29:53.707Z,13.70
2019-05-20T17:32:40.919Z,13.80
2019-05-20T17:35:28.399Z,13.80
2019-05-20T17:38:15.913Z,13.80
2019-05-20T17:41:03.692Z,13.70
2019-05-20T17:43:51.388Z,13.80
2019-05-20T17:46:38.883Z,13.80
2019-05-20T17:49:26.762Z,13.90
2019-05-20T17:52:14.580Z,13.80
2019-05-20T17:55:02.096Z,13.70
2019-05-20T17:57:49.391Z,13.60
2019-05-20T18:00:37.391Z,13.60
2019-05-20T18:03:24.670Z,13.40
2019-05-20T18:06:12.483Z,13.40
2019-05-20T18:09:01.204Z,13.50
2019-05-20T18:11:49.087Z,13.50
2019-05-20T18:14:36.324Z,13.60
2019-05-20T18:17:24.030Z,13.60
2019-05-20T18:20:11.606Z,13.50
2019-05-20T18:22:59.334Z,13.40
2019-05-20T18:25:46.401Z,13.30
2019-05-20T18:28:33.697Z,13.30
2019-05-20T18:31:32.138Z,13.50
2019-05-20T18:34:10.439Z,13.50
2019-05-20T18:36:57.665Z,13.40
2019-05-20T18:39:45.270Z,13.30
2019-05-20T18:42:32.994Z,13.20
2019-05-20T18:45:20.496Z,13.20
2019-05-20T18:48:07.946Z,13.10
2019-05-20T18:50:55.578Z,13.00
2019-05-20T18:53:43.304Z,13.00
2019-05-20T18:56:30.919Z,12.80
2019-05-20T18:59:18.398Z,12.80
2019-05-20T19:02:06.013Z,13.00
2019-05-20T19:04:53.553Z,12.80
2019-05-20T19:07:40.899Z,12.70
2019-05-20T19:10:29.109Z,12.70
2019-05-20T19:13:16.513Z,12.80
2019-05-20T19:16:03.851Z,12.80
2019-05-20T19:18:51.208Z,12.70
2019-05-20T19:21:38.852Z,12.60
2019-05-20T19:24:26.403Z,12.60
2019-05-20T19:27:13.380Z,12.60
2019-05-20T19:30:01.079Z,12.60
2019-05-20T19:32:48.476Z,12.60
2019-05-20T19:35:35.559Z,12.50
2019-05-20T19:38:23.060Z,12.40
2019-05-20T19:41:10.354Z,12.40
2019-05-20T19:43:57.992Z,12.30
2019-05-20T19:46:45.540Z,12.20
2019-05-20T19:49:32.571Z,12.20
2019-05-20T19:52:20.427Z,12.30
2019-05-20T19:55:09.113Z,12.30
2019-05-20T19:57:56.655Z,12.30
2019-05-20T20:00:43.681Z,12.30
2019-05-20T20:03:31.192Z,12.30
2019-05-20T20:06:18.693Z,12.30
2019-05-20T20:09:06.642Z,12.10
2019-05-20T20:11:54.317Z,12.20
2019-05-20T20:14:41.695Z,12.10
2019-05-20T20:17:28.778Z,12.10
2019-05-20T20:20:16.238Z,12.00
2019-05-20T20:23:03.803Z,12.00
2019-05-20T20:25:51.341Z,12.00
2019-05-20T20:28:38.391Z,12.10
2019-05-20T20:31:26.229Z,12.10
2019-05-20T20:34:13.568Z,12.00
2019-05-20T20:37:01.009Z,11.90
2019-05-20T20:39:48.043Z,12.00
2019-05-20T20:42:35.819Z,11.90
2019-05-20T20:45:23.118Z,12.10
2019-05-20T20:48:10.946Z,12.00
2019-05-20T20:50:58.519Z,12.00
2019-05-20T20:53:45.637Z,12.00
2019-05-20T20:56:34.271Z,12.00
2019-05-20T20:59:22.137Z,11.90
2019-05-20T21:02:09.711Z,12.00
2019-05-20T21:04:57.123Z,11.90
2019-05-20T21:07:44.773Z,11.90
2019-05-20T21:10:32.277Z,11.90
2019-05-20T21:13:19.618Z,12.00
2019-05-20T21:16:06.959Z,11.90
2019-05-20T21:18:54.333Z,11.80
2019-05-20T21:21:41.470Z,11.80
2019-05-20T21:24:28.847Z,11.80
2019-05-20T21:27:16.118Z,11.80
2019-05-20T21:30:04.758Z,11.90
2019-05-20T21:32:51.977Z,11.80
2019-05-20T21:35:39.556Z,11.80
2019-05-20T21:38:26.910Z,11.80
2019-05-20T21:41:13.955Z,11.80
2019-05-20T21:44:01.542Z,11.80
2019-05-20T21:47:10.073Z,11.70
2019-05-20T21:49:57.417Z,11.80
2019-05-20T21:52:44.571Z,11.70
2019-05-20T21:55:32.327Z,11.70
2019-05-20T21:58:19.611Z,11.80
2019-05-20T22:01:07.146Z,11.70
2019-05-20T22:03:54.738Z,11.70
2019-05-20T22:06:42.456Z,11.70
2019-05-20T22:09:29.990Z,11.70
2019-05-20T22:12:17.310Z,11.60
2019-05-20T22:15:06.820Z,11.60
2019-05-20T22:17:54.322Z,11.50
2019-05-20T22:20:41.793Z,11.50
2019-05-20T22:23:33.416Z,11.60
2019-05-20T22:26:20.633Z,11.50
2019-05-20T22:29:08.245Z,11.50
2019-05-20T22:31:55.859Z,11.40
2019-05-20T22:34:53.072Z,11.40
2019-05-20T22:37:32.162Z,11.40
2019-05-20T22:40:19.626Z,11.30
2019-05-20T22:43:06.968Z,11.20
2019-05-20T22:45:54.385Z,11.30
2019-05-20T22:48:41.692Z,11.20
2019-05-20T22:51:29.728Z,11.30
2019-05-20T22:54:17.174Z,11.30
2019-05-20T22:57:04.903Z,11.50
2019-05-20T22:59:52.165Z,11.50
2019-05-20T23:02:39.897Z,11.30
2019-05-20T23:05:27.126Z,11.30
2019-05-20T23:08:14.311Z,11.30
2019-05-20T23:11:02.012Z,11.10
2019-05-20T23:13:49.573Z,11.30
2019-05-20T23:16:36.750Z,11.30
2019-05-20T23:19:24.499Z,11.20
2019-05-20T23:22:12.329Z,11.20
2019-05-20T23:24:59.089Z,11.10
2019-05-20T23:27:46.350Z,11.20
2019-05-20T23:30:33.651Z,11.20
2019-05-20T23:33:21.019Z,11.10
2019-05-20T23:36:08.192Z,11.00
2019-05-20T23:38:55.814Z,11.00
2019-05-20T23:41:42.762Z,11.00
2019-05-20T23:44:30.163Z,11.20
2019-05-20T23:47:17.657Z,11.20
2019-05-20T23:50:06.300Z,11.10
2019-05-20T23:52:53.625Z,11.10
2019-05-20T23:55:41.099Z,11.10
2019-05-20T23:58:28.637Z,11.10
